sensor_id;sensor_type;location;lat;lon;timestamp;P1;durP1;ratioP1;P2;durP2;ratioP2
24389;SDS011;12510;56.468;-3.004;2023-07-28T00:00:36;13.68;;;12.75;;
24389;SDS011;12510;56.468;-3.004;2023-07-28T00:03:02;16.90;;;15.32;;
24389;SDS011;12510;56.468;-3.004;2023-07-28T00:05:29;12.48;;;11.57;;
24389;SDS011;12510;56.468;-3.004;2023-07-28T00:07:56;15.43;;;13.88;;
24389;SDS011;12510;56.468;-3.004;2023-07-28T00:10:22;10.57;;;9.85;;
24389;SDS011;12510;56.468;-3.004;2023-07-28T00:12:48;12.30;;;11.15;;
24389;SDS011;12510;56.468;-3.004;2023-07-28T00:15:15;12.52;;;11.45;;
24389;SDS011;12510;56.468;-3.004;2023-07-28T00:17:42;12.07;;;11.07;;
24389;SDS011;12510;56.468;-3.004;2023-07-28T00:20:08;12.98;;;11.88;;
24389;SDS011;12510;56.468;-3.004;2023-07-28T00:22:35;12.30;;;11.13;;
24389;SDS011;12510;56.468;-3.004;2023-07-28T00:25:02;9.38;;;8.57;;
24389;SDS011;12510;56.468;-3.004;2023-07-28T00:27:28;8.88;;;8.20;;
24389;SDS011;12510;56.468;-3.004;2023-07-28T00:29:55;11.63;;;10.60;;
24389;SDS011;12510;56.468;-3.004;2023-07-28T00:32:21;9.60;;;8.90;;
24389;SDS011;12510;56.468;-3.004;2023-07-28T00:34:48;11.35;;;10.50;;
24389;SDS011;12510;56.468;-3.004;2023-07-28T00:37:14;13.15;;;11.85;;
24389;SDS011;12510;56.468;-3.004;2023-07-28T00:39:41;10.90;;;10.02;;
24389;SDS011;12510;56.468;-3.004;2023-07-28T00:42:07;8.32;;;7.72;;
24389;SDS011;12510;56.468;-3.004;2023-07-28T00:44:35;13.38;;;12.60;;
24389;SDS011;12510;56.468;-3.004;2023-07-28T00:47:02;8.48;;;8.07;;
24389;SDS011;12510;56.468;-3.004;2023-07-28T00:49:28;9.60;;;9.10;;
24389;SDS011;12510;56.468;-3.004;2023-07-28T00:51:56;8.60;;;8.20;;
24389;SDS011;12510;56.468;-3.004;2023-07-28T00:54:22;10.25;;;9.65;;
24389;SDS011;12510;56.468;-3.004;2023-07-28T00:56:49;8.52;;;8.07;;
24389;SDS011;12510;56.468;-3.004;2023-07-28T00:59:17;9.45;;;8.93;;
24389;SDS011;12510;56.468;-3.004;2023-07-28T01:01:44;8.63;;;8.05;;
24389;SDS011;12510;56.468;-3.004;2023-07-28T01:04:10;14.07;;;13.30;;
24389;SDS011;12510;56.468;-3.004;2023-07-28T01:06:41;6.43;;;6.03;;
24389;SDS011;12510;56.468;-3.004;2023-07-28T01:09:34;5.32;;;4.90;;
24389;SDS011;12510;56.468;-3.004;2023-07-28T01:12:09;5.35;;;5.03;;
24389;SDS011;12510;56.468;-3.004;2023-07-28T01:14:35;6.88;;;6.47;;
24389;SDS011;12510;56.468;-3.004;2023-07-28T01:17:02;7.75;;;7.22;;
24389;SDS011;12510;56.468;-3.004;2023-07-28T01:19:29;7.38;;;6.97;;
24389;SDS011;12510;56.468;-3.004;2023-07-28T01:24:56;4.47;;;4.22;;
24389;SDS011;12510;56.468;-3.004;2023-07-28T01:29:59;3.20;;;3.00;;
24389;SDS011;12510;56.468;-3.004;2023-07-28T01:32:26;5.72;;;5.32;;
24389;SDS011;12510;56.468;-3.004;2023-07-28T01:34:52;4.82;;;4.43;;
24389;SDS011;12510;56.468;-3.004;2023-07-28T01:37:19;5.40;;;5.00;;
24389;SDS011;12510;56.468;-3.004;2023-07-28T01:39:46;5.03;;;4.75;;
24389;SDS011;12510;56.468;-3.004;2023-07-28T01:42:12;5.35;;;4.95;;
24389;SDS011;12510;56.468;-3.004;2023-07-28T01:44:39;6.93;;;6.38;;
24389;SDS011;12510;56.468;-3.004;2023-07-28T01:47:05;4.90;;;4.65;;
24389;SDS011;12510;56.468;-3.004;2023-07-28T01:49:32;4.00;;;3.85;;
24389;SDS011;12510;56.468;-3.004;2023-07-28T01:51:58;5.13;;;4.78;;
24389;SDS011;12510;56.468;-3.004;2023-07-28T01:54:24;4.50;;;4.15;;
24389;SDS011;12510;56.468;-3.004;2023-07-28T01:56:51;5.05;;;4.63;;
24389;SDS011;12510;56.468;-3.004;2023-07-28T01:59:17;5.68;;;5.30;;
24389;SDS011;12510;56.468;-3.004;2023-07-28T02:01:45;4.72;;;4.43;;
24389;SDS011;12510;56.468;-3.004;2023-07-28T02:04:12;6.13;;;3.40;;
24389;SDS011;12510;56.468;-3.004;2023-07-28T02:06:39;4.38;;;4.13;;
24389;SDS011;12510;56.468;-3.004;2023-07-28T02:09:05;5.50;;;5.10;;
24389;SDS011;12510;56.468;-3.004;2023-07-28T02:11:32;7.53;;;4.45;;
24389;SDS011;12510;56.468;-3.004;2023-07-28T02:13:58;3.58;;;3.22;;
24389;SDS011;12510;56.468;-3.004;2023-07-28T02:16:25;5.20;;;3.10;;
24389;SDS011;12510;56.468;-3.004;2023-07-28T02:18:53;4.18;;;3.53;;
24389;SDS011;12510;56.468;-3.004;2023-07-28T02:21:20;2.78;;;2.63;;
24389;SDS011;12510;56.468;-3.004;2023-07-28T02:23:47;4.00;;;3.00;;
24389;SDS011;12510;56.468;-3.004;2023-07-28T02:26:14;5.00;;;4.75;;
24389;SDS011;12510;56.468;-3.004;2023-07-28T02:28:41;3.50;;;3.20;;
24389;SDS011;12510;56.468;-3.004;2023-07-28T02:31:07;4.40;;;3.42;;
24389;SDS011;12510;56.468;-3.004;2023-07-28T02:33:34;5.65;;;2.90;;
24389;SDS011;12510;56.468;-3.004;2023-07-28T02:36:03;4.47;;;2.70;;
24389;SDS011;12510;56.468;-3.004;2023-07-28T02:38:30;6.13;;;4.70;;
24389;SDS011;12510;56.468;-3.004;2023-07-28T02:40:57;4.18;;;3.63;;
24389;SDS011;12510;56.468;-3.004;2023-07-28T02:43:23;8.90;;;4.47;;
24389;SDS011;12510;56.468;-3.004;2023-07-28T02:46:00;6.47;;;4.15;;
24389;SDS011;12510;56.468;-3.004;2023-07-28T02:48:27;4.80;;;4.38;;
24389;SDS011;12510;56.468;-3.004;2023-07-28T02:50:53;3.95;;;3.60;;
24389;SDS011;12510;56.468;-3.004;2023-07-28T02:53:20;4.07;;;3.83;;
24389;SDS011;12510;56.468;-3.004;2023-07-28T02:55:46;5.05;;;4.75;;
24389;SDS011;12510;56.468;-3.004;2023-07-28T02:58:14;3.85;;;3.55;;
24389;SDS011;12510;56.468;-3.004;2023-07-28T03:00:41;4.57;;;4.38;;
24389;SDS011;12510;56.468;-3.004;2023-07-28T03:03:09;4.82;;;4.47;;
24389;SDS011;12510;56.468;-3.004;2023-07-28T03:05:40;4.93;;;3.25;;
24389;SDS011;12510;56.468;-3.004;2023-07-28T03:08:18;4.20;;;2.53;;
24389;SDS011;12510;56.468;-3.004;2023-07-28T03:10:44;4.13;;;3.85;;
24389;SDS011;12510;56.468;-3.004;2023-07-28T03:13:11;4.07;;;3.92;;
24389;SDS011;12510;56.468;-3.004;2023-07-28T03:15:38;3.40;;;3.03;;
24389;SDS011;12510;56.468;-3.004;2023-07-28T03:18:05;5.47;;;5.00;;
24389;SDS011;12510;56.468;-3.004;2023-07-28T03:20:32;4.10;;;3.80;;
24389;SDS011;12510;56.468;-3.004;2023-07-28T03:22:58;4.45;;;3.97;;
24389;SDS011;12510;56.468;-3.004;2023-07-28T03:25:25;3.75;;;3.45;;
24389;SDS011;12510;56.468;-3.004;2023-07-28T03:27:52;2.92;;;2.47;;
24389;SDS011;12510;56.468;-3.004;2023-07-28T03:30:18;4.28;;;3.85;;
24389;SDS011;12510;56.468;-3.004;2023-07-28T03:32:45;2.50;;;2.33;;
24389;SDS011;12510;56.468;-3.004;2023-07-28T03:35:11;3.17;;;2.88;;
24389;SDS011;12510;56.468;-3.004;2023-07-28T03:37:44;5.00;;;4.03;;
24389;SDS011;12510;56.468;-3.004;2023-07-28T03:40:10;4.38;;;3.95;;
24389;SDS011;12510;56.468;-3.004;2023-07-28T03:42:46;3.63;;;3.42;;
24389;SDS011;12510;56.468;-3.004;2023-07-28T03:45:13;4.78;;;4.00;;
24389;SDS011;12510;56.468;-3.004;2023-07-28T03:47:39;7.53;;;4.32;;
24389;SDS011;12510;56.468;-3.004;2023-07-28T03:50:06;3.67;;;3.47;;
24389;SDS011;12510;56.468;-3.004;2023-07-28T03:52:32;3.47;;;3.10;;
24389;SDS011;12510;56.468;-3.004;2023-07-28T03:54:59;4.47;;;4.05;;
24389;SDS011;12510;56.468;-3.004;2023-07-28T03:57:25;4.07;;;3.78;;
24389;SDS011;12510;56.468;-3.004;2023-07-28T03:59:52;4.25;;;3.92;;
24389;SDS011;12510;56.468;-3.004;2023-07-28T04:02:18;4.70;;;4.22;;
24389;SDS011;12510;56.468;-3.004;2023-07-28T04:04:45;5.88;;;5.53;;
24389;SDS011;12510;56.468;-3.004;2023-07-28T04:07:11;3.58;;;3.38;;
24389;SDS011;12510;56.468;-3.004;2023-07-28T04:09:37;3.78;;;3.55;;
24389;SDS011;12510;56.468;-3.004;2023-07-28T04:12:04;6.85;;;6.38;;
24389;SDS011;12510;56.468;-3.004;2023-07-28T04:14:30;3.63;;;3.08;;
24389;SDS011;12510;56.468;-3.004;2023-07-28T04:16:57;4.55;;;3.88;;
24389;SDS011;12510;56.468;-3.004;2023-07-28T04:19:23;4.28;;;4.07;;
24389;SDS011;12510;56.468;-3.004;2023-07-28T04:21:50;3.75;;;3.55;;
24389;SDS011;12510;56.468;-3.004;2023-07-28T04:24:16;4.32;;;3.55;;
24389;SDS011;12510;56.468;-3.004;2023-07-28T04:26:46;2.47;;;2.38;;
24389;SDS011;12510;56.468;-3.004;2023-07-28T04:29:15;3.70;;;3.35;;
24389;SDS011;12510;56.468;-3.004;2023-07-28T04:31:41;4.30;;;4.10;;
24389;SDS011;12510;56.468;-3.004;2023-07-28T04:34:11;3.78;;;3.55;;
24389;SDS011;12510;56.468;-3.004;2023-07-28T04:36:58;3.03;;;2.80;;
24389;SDS011;12510;56.468;-3.004;2023-07-28T04:39:30;4.75;;;4.05;;
24389;SDS011;12510;56.468;-3.004;2023-07-28T04:41:57;4.75;;;2.22;;
24389;SDS011;12510;56.468;-3.004;2023-07-28T04:44:23;4.18;;;3.83;;
24389;SDS011;12510;56.468;-3.004;2023-07-28T04:46:55;4.50;;;4.32;;
24389;SDS011;12510;56.468;-3.004;2023-07-28T04:49:23;3.67;;;3.45;;
24389;SDS011;12510;56.468;-3.004;2023-07-28T04:52:10;4.18;;;2.85;;
24389;SDS011;12510;56.468;-3.004;2023-07-28T04:54:37;5.05;;;4.65;;
24389;SDS011;12510;56.468;-3.004;2023-07-28T04:57:04;3.42;;;3.17;;
24389;SDS011;12510;56.468;-3.004;2023-07-28T04:59:33;2.90;;;2.47;;
24389;SDS011;12510;56.468;-3.004;2023-07-28T05:02:00;2.50;;;2.15;;
24389;SDS011;12510;56.468;-3.004;2023-07-28T05:04:27;3.75;;;3.55;;
24389;SDS011;12510;56.468;-3.004;2023-07-28T05:06:53;6.15;;;3.67;;
24389;SDS011;12510;56.468;-3.004;2023-07-28T05:09:19;5.50;;;5.00;;
24389;SDS011;12510;56.468;-3.004;2023-07-28T05:11:46;3.10;;;2.75;;
24389;SDS011;12510;56.468;-3.004;2023-07-28T05:14:13;3.85;;;3.55;;
24389;SDS011;12510;56.468;-3.004;2023-07-28T05:16:40;4.63;;;4.32;;
24389;SDS011;12510;56.468;-3.004;2023-07-28T05:19:09;5.75;;;4.47;;
24389;SDS011;12510;56.468;-3.004;2023-07-28T05:21:54;4.78;;;4.38;;
24389;SDS011;12510;56.468;-3.004;2023-07-28T05:24:27;2.95;;;2.70;;
24389;SDS011;12510;56.468;-3.004;2023-07-28T05:26:54;4.90;;;4.55;;
24389;SDS011;12510;56.468;-3.004;2023-07-28T05:29:20;5.53;;;5.22;;
24389;SDS011;12510;56.468;-3.004;2023-07-28T05:31:48;3.85;;;3.55;;
24389;SDS011;12510;56.468;-3.004;2023-07-28T05:34:27;3.45;;;3.20;;
24389;SDS011;12510;56.468;-3.004;2023-07-28T05:36:54;6.05;;;5.63;;
24389;SDS011;12510;56.468;-3.004;2023-07-28T05:39:24;7.43;;;7.03;;
24389;SDS011;12510;56.468;-3.004;2023-07-28T05:41:50;5.28;;;4.38;;
24389;SDS011;12510;56.468;-3.004;2023-07-28T05:44:17;6.22;;;5.13;;
24389;SDS011;12510;56.468;-3.004;2023-07-28T05:46:44;6.15;;;5.85;;
24389;SDS011;12510;56.468;-3.004;2023-07-28T05:49:12;7.35;;;6.78;;
24389;SDS011;12510;56.468;-3.004;2023-07-28T05:51:38;11.23;;;10.40;;
24389;SDS011;12510;56.468;-3.004;2023-07-28T05:54:04;9.90;;;9.20;;
24389;SDS011;12510;56.468;-3.004;2023-07-28T05:56:31;12.48;;;11.65;;
24389;SDS011;12510;56.468;-3.004;2023-07-28T05:58:57;12.85;;;11.98;;
24389;SDS011;12510;56.468;-3.004;2023-07-28T06:01:24;7.28;;;6.88;;
24389;SDS011;12510;56.468;-3.004;2023-07-28T06:04:11;11.20;;;10.52;;
24389;SDS011;12510;56.468;-3.004;2023-07-28T06:06:45;11.20;;;10.63;;
24389;SDS011;12510;56.468;-3.004;2023-07-28T06:09:14;14.20;;;13.48;;
24389;SDS011;12510;56.468;-3.004;2023-07-28T06:11:41;14.75;;;13.98;;
24389;SDS011;12510;56.468;-3.004;2023-07-28T06:14:08;14.07;;;13.07;;
24389;SDS011;12510;56.468;-3.004;2023-07-28T06:16:36;13.93;;;13.02;;
24389;SDS011;12510;56.468;-3.004;2023-07-28T06:19:03;15.77;;;14.90;;
24389;SDS011;12510;56.468;-3.004;2023-07-28T06:21:31;11.63;;;10.82;;
24389;SDS011;12510;56.468;-3.004;2023-07-28T06:23:58;13.50;;;12.85;;
24389;SDS011;12510;56.468;-3.004;2023-07-28T06:26:24;16.92;;;16.05;;
24389;SDS011;12510;56.468;-3.004;2023-07-28T06:28:50;15.27;;;14.32;;
24389;SDS011;12510;56.468;-3.004;2023-07-28T06:31:17;19.27;;;17.88;;
24389;SDS011;12510;56.468;-3.004;2023-07-28T06:33:43;14.70;;;13.95;;
24389;SDS011;12510;56.468;-3.004;2023-07-28T06:36:10;18.70;;;17.75;;
24389;SDS011;12510;56.468;-3.004;2023-07-28T06:38:37;26.85;;;25.30;;
24389;SDS011;12510;56.468;-3.004;2023-07-28T06:41:04;13.82;;;13.13;;
24389;SDS011;12510;56.468;-3.004;2023-07-28T06:43:31;13.95;;;13.23;;
24389;SDS011;12510;56.468;-3.004;2023-07-28T06:48:27;5.20;;;4.97;;
24389;SDS011;12510;56.468;-3.004;2023-07-28T06:50:54;10.63;;;10.05;;
24389;SDS011;12510;56.468;-3.004;2023-07-28T06:53:21;12.65;;;11.95;;
24389;SDS011;12510;56.468;-3.004;2023-07-28T06:55:47;14.65;;;13.88;;
24389;SDS011;12510;56.468;-3.004;2023-07-28T06:58:14;15.85;;;14.85;;
24389;SDS011;12510;56.468;-3.004;2023-07-28T07:00:40;23.23;;;22.02;;
24389;SDS011;12510;56.468;-3.004;2023-07-28T07:03:07;11.95;;;11.35;;
24389;SDS011;12510;56.468;-3.004;2023-07-28T07:05:34;14.13;;;13.05;;
24389;SDS011;12510;56.468;-3.004;2023-07-28T07:08:00;16.02;;;15.18;;
24389;SDS011;12510;56.468;-3.004;2023-07-28T07:10:27;11.10;;;10.38;;
24389;SDS011;12510;56.468;-3.004;2023-07-28T07:12:54;15.00;;;13.95;;
24389;SDS011;12510;56.468;-3.004;2023-07-28T07:15:22;25.02;;;23.45;;
24389;SDS011;12510;56.468;-3.004;2023-07-28T07:17:48;23.90;;;22.50;;
24389;SDS011;12510;56.468;-3.004;2023-07-28T07:20:15;10.23;;;9.43;;
24389;SDS011;12510;56.468;-3.004;2023-07-28T07:22:41;11.63;;;10.95;;
24389;SDS011;12510;56.468;-3.004;2023-07-28T07:25:09;27.67;;;25.85;;
24389;SDS011;12510;56.468;-3.004;2023-07-28T07:27:36;25.05;;;23.10;;
24389;SDS011;12510;56.468;-3.004;2023-07-28T07:30:02;18.73;;;17.55;;
24389;SDS011;12510;56.468;-3.004;2023-07-28T07:32:30;23.77;;;22.33;;
24389;SDS011;12510;56.468;-3.004;2023-07-28T07:34:58;20.42;;;18.95;;
24389;SDS011;12510;56.468;-3.004;2023-07-28T07:37:24;36.17;;;33.85;;
24389;SDS011;12510;56.468;-3.004;2023-07-28T07:39:51;38.08;;;35.90;;
24389;SDS011;12510;56.468;-3.004;2023-07-28T07:42:17;24.38;;;22.92;;
24389;SDS011;12510;56.468;-3.004;2023-07-28T07:44:44;43.13;;;40.28;;
24389;SDS011;12510;56.468;-3.004;2023-07-28T07:47:13;25.17;;;23.75;;
24389;SDS011;12510;56.468;-3.004;2023-07-28T07:49:41;25.50;;;24.13;;
24389;SDS011;12510;56.468;-3.004;2023-07-28T07:52:08;24.90;;;23.48;;
24389;SDS011;12510;56.468;-3.004;2023-07-28T07:54:36;45.20;;;42.60;;
24389;SDS011;12510;56.468;-3.004;2023-07-28T07:57:02;40.45;;;38.10;;
24389;SDS011;12510;56.468;-3.004;2023-07-28T07:59:30;35.55;;;33.47;;
24389;SDS011;12510;56.468;-3.004;2023-07-28T08:01:59;38.70;;;36.50;;
24389;SDS011;12510;56.468;-3.004;2023-07-28T08:04:26;36.83;;;34.65;;
24389;SDS011;12510;56.468;-3.004;2023-07-28T08:06:53;71.18;;;66.63;;
24389;SDS011;12510;56.468;-3.004;2023-07-28T08:09:20;91.55;;;85.50;;
24389;SDS011;12510;56.468;-3.004;2023-07-28T08:11:47;49.60;;;46.42;;
24389;SDS011;12510;56.468;-3.004;2023-07-28T08:14:14;46.50;;;43.58;;
24389;SDS011;12510;56.468;-3.004;2023-07-28T08:16:41;53.55;;;50.22;;
24389;SDS011;12510;56.468;-3.004;2023-07-28T08:19:07;55.00;;;51.35;;
24389;SDS011;12510;56.468;-3.004;2023-07-28T08:21:33;48.70;;;45.38;;
24389;SDS011;12510;56.468;-3.004;2023-07-28T08:24:03;16.98;;;15.88;;
24389;SDS011;12510;56.468;-3.004;2023-07-28T08:26:30;32.80;;;30.75;;
24389;SDS011;12510;56.468;-3.004;2023-07-28T08:28:56;30.52;;;28.83;;
24389;SDS011;12510;56.468;-3.004;2023-07-28T08:31:23;33.80;;;31.63;;
24389;SDS011;12510;56.468;-3.004;2023-07-28T08:33:50;45.38;;;42.42;;
24389;SDS011;12510;56.468;-3.004;2023-07-28T08:36:16;46.20;;;43.42;;
24389;SDS011;12510;56.468;-3.004;2023-07-28T08:38:43;32.17;;;30.27;;
24389;SDS011;12510;56.468;-3.004;2023-07-28T08:41:12;36.78;;;34.42;;
24389;SDS011;12510;56.468;-3.004;2023-07-28T08:43:39;44.38;;;41.75;;
24389;SDS011;12510;56.468;-3.004;2023-07-28T08:46:06;39.03;;;36.67;;
24389;SDS011;12510;56.468;-3.004;2023-07-28T08:48:33;41.15;;;38.47;;
24389;SDS011;12510;56.468;-3.004;2023-07-28T08:51:00;52.13;;;48.80;;
24389;SDS011;12510;56.468;-3.004;2023-07-28T08:53:28;12.50;;;11.63;;
24389;SDS011;12510;56.468;-3.004;2023-07-28T08:55:54;7.97;;;7.38;;
24389;SDS011;12510;56.468;-3.004;2023-07-28T08:58:21;10.35;;;9.75;;
24389;SDS011;12510;56.468;-3.004;2023-07-28T09:00:50;16.17;;;15.00;;
24389;SDS011;12510;56.468;-3.004;2023-07-28T09:03:18;29.27;;;27.63;;
24389;SDS011;12510;56.468;-3.004;2023-07-28T09:05:45;19.38;;;18.23;;
24389;SDS011;12510;56.468;-3.004;2023-07-28T09:08:13;1.65;;;1.55;;
24389;SDS011;12510;56.468;-3.004;2023-07-28T09:10:41;19.17;;;17.90;;
24389;SDS011;12510;56.468;-3.004;2023-07-28T09:13:11;9.57;;;8.57;;
24389;SDS011;12510;56.468;-3.004;2023-07-28T09:15:39;5.47;;;1.52;;
24389;SDS011;12510;56.468;-3.004;2023-07-28T09:18:09;6.22;;;5.85;;
24389;SDS011;12510;56.468;-3.004;2023-07-28T09:20:38;9.02;;;8.43;;
24389;SDS011;12510;56.468;-3.004;2023-07-28T09:23:07;3.50;;;2.85;;
24389;SDS011;12510;56.468;-3.004;2023-07-28T09:25:35;5.35;;;5.15;;
24389;SDS011;12510;56.468;-3.004;2023-07-28T09:28:02;5.47;;;5.18;;
24389;SDS011;12510;56.468;-3.004;2023-07-28T09:30:48;2.45;;;2.25;;
24389;SDS011;12510;56.468;-3.004;2023-07-28T09:33:35;4.70;;;4.40;;
24389;SDS011;12510;56.468;-3.004;2023-07-28T09:36:12;0.80;;;0.80;;
24389;SDS011;12510;56.468;-3.004;2023-07-28T09:38:42;1.50;;;1.02;;
24389;SDS011;12510;56.468;-3.004;2023-07-28T09:41:09;1.20;;;1.10;;
24389;SDS011;12510;56.468;-3.004;2023-07-28T09:43:37;0.80;;;0.70;;
24389;SDS011;12510;56.468;-3.004;2023-07-28T09:46:07;0.93;;;0.68;;
24389;SDS011;12510;56.468;-3.004;2023-07-28T09:51:05;0.90;;;0.85;;
24389;SDS011;12510;56.468;-3.004;2023-07-28T09:53:36;1.33;;;1.23;;
24389;SDS011;12510;56.468;-3.004;2023-07-28T09:56:11;0.90;;;0.70;;
24389;SDS011;12510;56.468;-3.004;2023-07-28T09:58:50;1.45;;;0.45;;
24389;SDS011;12510;56.468;-3.004;2023-07-28T10:01:21;2.13;;;0.85;;
24389;SDS011;12510;56.468;-3.004;2023-07-28T10:03:49;3.33;;;1.17;;
24389;SDS011;12510;56.468;-3.004;2023-07-28T10:06:17;2.00;;;0.80;;
24389;SDS011;12510;56.468;-3.004;2023-07-28T10:08:45;1.55;;;0.70;;
24389;SDS011;12510;56.468;-3.004;2023-07-28T10:11:12;4.47;;;0.88;;
24389;SDS011;12510;56.468;-3.004;2023-07-28T10:13:44;1.17;;;0.60;;
24389;SDS011;12510;56.468;-3.004;2023-07-28T10:16:12;2.15;;;0.98;;
24389;SDS011;12510;56.468;-3.004;2023-07-28T10:18:41;1.98;;;1.20;;
24389;SDS011;12510;56.468;-3.004;2023-07-28T10:21:19;5.88;;;1.30;;
24389;SDS011;12510;56.468;-3.004;2023-07-28T10:23:45;2.15;;;1.17;;
24389;SDS011;12510;56.468;-3.004;2023-07-28T10:26:31;2.28;;;1.35;;
24389;SDS011;12510;56.468;-3.004;2023-07-28T10:29:10;1.85;;;1.02;;
24389;SDS011;12510;56.468;-3.004;2023-07-28T10:31:52;2.30;;;0.70;;
24389;SDS011;12510;56.468;-3.004;2023-07-28T10:34:20;0.73;;;0.73;;
24389;SDS011;12510;56.468;-3.004;2023-07-28T10:36:55;1.67;;;0.75;;
24389;SDS011;12510;56.468;-3.004;2023-07-28T10:39:26;1.60;;;1.00;;
24389;SDS011;12510;56.468;-3.004;2023-07-28T10:42:05;1.33;;;0.70;;
24389;SDS011;12510;56.468;-3.004;2023-07-28T10:44:35;1.38;;;0.90;;
24389;SDS011;12510;56.468;-3.004;2023-07-28T10:47:02;6.70;;;1.30;;
24389;SDS011;12510;56.468;-3.004;2023-07-28T10:49:34;1.83;;;0.88;;
24389;SDS011;12510;56.468;-3.004;2023-07-28T10:52:00;0.88;;;0.88;;
24389;SDS011;12510;56.468;-3.004;2023-07-28T10:54:27;1.92;;;0.95;;
24389;SDS011;12510;56.468;-3.004;2023-07-28T10:56:53;1.83;;;1.20;;
24389;SDS011;12510;56.468;-3.004;2023-07-28T10:59:20;1.58;;;1.30;;
24389;SDS011;12510;56.468;-3.004;2023-07-28T11:01:47;1.55;;;1.17;;
24389;SDS011;12510;56.468;-3.004;2023-07-28T11:06:47;1.75;;;1.10;;
24389;SDS011;12510;56.468;-3.004;2023-07-28T11:09:18;1.55;;;1.20;;
24389;SDS011;12510;56.468;-3.004;2023-07-28T11:11:45;4.45;;;1.45;;
24389;SDS011;12510;56.468;-3.004;2023-07-28T11:14:14;3.20;;;1.80;;
24389;SDS011;12510;56.468;-3.004;2023-07-28T11:16:41;2.03;;;1.92;;
24389;SDS011;12510;56.468;-3.004;2023-07-28T11:19:08;1.40;;;0.95;;
24389;SDS011;12510;56.468;-3.004;2023-07-28T11:21:39;4.22;;;1.13;;
24389;SDS011;12510;56.468;-3.004;2023-07-28T11:24:08;2.72;;;1.73;;
24389;SDS011;12510;56.468;-3.004;2023-07-28T11:26:35;5.30;;;2.13;;
24389;SDS011;12510;56.468;-3.004;2023-07-28T11:29:03;3.10;;;2.90;;
24389;SDS011;12510;56.468;-3.004;2023-07-28T11:31:30;5.05;;;2.80;;
24389;SDS011;12510;56.468;-3.004;2023-07-28T11:33:57;3.28;;;2.67;;
24389;SDS011;12510;56.468;-3.004;2023-07-28T11:36:24;5.40;;;2.42;;
24389;SDS011;12510;56.468;-3.004;2023-07-28T11:38:51;3.03;;;2.00;;
24389;SDS011;12510;56.468;-3.004;2023-07-28T11:41:20;6.10;;;3.20;;
24389;SDS011;12510;56.468;-3.004;2023-07-28T11:43:48;2.90;;;2.70;;
24389;SDS011;12510;56.468;-3.004;2023-07-28T11:51:41;2.10;;;1.65;;
24389;SDS011;12510;56.468;-3.004;2023-07-28T11:54:10;1.65;;;1.42;;
24389;SDS011;12510;56.468;-3.004;2023-07-28T11:56:44;2.03;;;1.15;;
24389;SDS011;12510;56.468;-3.004;2023-07-28T11:59:14;11.65;;;6.68;;
24389;SDS011;12510;56.468;-3.004;2023-07-28T12:04:36;1.38;;;1.20;;
24389;SDS011;12510;56.468;-3.004;2023-07-28T12:07:11;1.90;;;1.33;;
24389;SDS011;12510;56.468;-3.004;2023-07-28T12:12:12;1.55;;;1.20;;
24389;SDS011;12510;56.468;-3.004;2023-07-28T12:14:39;2.13;;;1.20;;
24389;SDS011;12510;56.468;-3.004;2023-07-28T12:17:15;7.25;;;1.90;;
24389;SDS011;12510;56.468;-3.004;2023-07-28T12:22:27;1.48;;;1.08;;
24389;SDS011;12510;56.468;-3.004;2023-07-28T12:24:54;1.50;;;1.15;;
24389;SDS011;12510;56.468;-3.004;2023-07-28T12:27:22;2.58;;;1.10;;
24389;SDS011;12510;56.468;-3.004;2023-07-28T12:29:50;2.35;;;1.25;;
24389;SDS011;12510;56.468;-3.004;2023-07-28T12:32:17;2.55;;;1.25;;
24389;SDS011;12510;56.468;-3.004;2023-07-28T12:34:44;2.65;;;1.50;;
24389;SDS011;12510;56.468;-3.004;2023-07-28T12:37:10;5.32;;;2.03;;
24389;SDS011;12510;56.468;-3.004;2023-07-28T12:39:38;1.30;;;1.20;;
24389;SDS011;12510;56.468;-3.004;2023-07-28T12:42:07;1.70;;;1.52;;
24389;SDS011;12510;56.468;-3.004;2023-07-28T12:44:35;2.28;;;2.08;;
24389;SDS011;12510;56.468;-3.004;2023-07-28T12:47:03;1.70;;;1.13;;
24389;SDS011;12510;56.468;-3.004;2023-07-28T12:49:30;1.73;;;1.20;;
24389;SDS011;12510;56.468;-3.004;2023-07-28T12:52:00;1.38;;;0.88;;
24389;SDS011;12510;56.468;-3.004;2023-07-28T12:54:28;1.00;;;1.00;;
24389;SDS011;12510;56.468;-3.004;2023-07-28T12:56:55;2.63;;;1.13;;
24389;SDS011;12510;56.468;-3.004;2023-07-28T12:59:21;4.43;;;1.33;;
24389;SDS011;12510;56.468;-3.004;2023-07-28T13:01:48;1.52;;;1.23;;
24389;SDS011;12510;56.468;-3.004;2023-07-28T13:04:14;4.43;;;1.27;;
24389;SDS011;12510;56.468;-3.004;2023-07-28T13:06:41;1.50;;;1.27;;
24389;SDS011;12510;56.468;-3.004;2023-07-28T13:09:07;2.97;;;1.20;;
24389;SDS011;12510;56.468;-3.004;2023-07-28T13:11:34;1.40;;;1.00;;
24389;SDS011;12510;56.468;-3.004;2023-07-28T13:14:01;2.05;;;1.00;;
24389;SDS011;12510;56.468;-3.004;2023-07-28T13:16:28;0.95;;;0.95;;
24389;SDS011;12510;56.468;-3.004;2023-07-28T13:18:54;1.90;;;1.10;;
24389;SDS011;12510;56.468;-3.004;2023-07-28T13:21:22;1.63;;;1.10;;
24389;SDS011;12510;56.468;-3.004;2023-07-28T13:23:49;0.80;;;0.80;;
24389;SDS011;12510;56.468;-3.004;2023-07-28T13:26:16;1.30;;;1.20;;
24389;SDS011;12510;56.468;-3.004;2023-07-28T13:28:42;4.82;;;2.40;;
24389;SDS011;12510;56.468;-3.004;2023-07-28T13:31:13;3.97;;;1.30;;
24389;SDS011;12510;56.468;-3.004;2023-07-28T13:33:41;1.08;;;1.00;;
24389;SDS011;12510;56.468;-3.004;2023-07-28T13:36:08;4.05;;;1.30;;
24389;SDS011;12510;56.468;-3.004;2023-07-28T13:38:34;2.67;;;1.25;;
24389;SDS011;12510;56.468;-3.004;2023-07-28T13:41:03;1.23;;;1.13;;
24389;SDS011;12510;56.468;-3.004;2023-07-28T13:43:40;3.30;;;1.38;;
24389;SDS011;12510;56.468;-3.004;2023-07-28T13:46:07;1.33;;;1.00;;
24389;SDS011;12510;56.468;-3.004;2023-07-28T13:48:34;1.83;;;1.15;;
24389;SDS011;12510;56.468;-3.004;2023-07-28T13:51:02;2.33;;;1.20;;
24389;SDS011;12510;56.468;-3.004;2023-07-28T13:53:28;1.50;;;0.90;;
24389;SDS011;12510;56.468;-3.004;2023-07-28T13:55:55;3.40;;;1.70;;
24389;SDS011;12510;56.468;-3.004;2023-07-28T13:58:22;3.17;;;1.20;;
24389;SDS011;12510;56.468;-3.004;2023-07-28T14:00:49;1.55;;;1.17;;
24389;SDS011;12510;56.468;-3.004;2023-07-28T14:03:15;1.77;;;1.30;;
24389;SDS011;12510;56.468;-3.004;2023-07-28T14:05:43;0.80;;;0.80;;
24389;SDS011;12510;56.468;-3.004;2023-07-28T14:08:11;1.02;;;0.90;;
24389;SDS011;12510;56.468;-3.004;2023-07-28T14:10:37;1.92;;;1.23;;
24389;SDS011;12510;56.468;-3.004;2023-07-28T14:13:04;1.10;;;1.10;;
24389;SDS011;12510;56.468;-3.004;2023-07-28T14:15:31;1.50;;;1.40;;
24389;SDS011;12510;56.468;-3.004;2023-07-28T14:17:57;1.10;;;1.00;;
24389;SDS011;12510;56.468;-3.004;2023-07-28T14:20:23;2.88;;;1.60;;
24389;SDS011;12510;56.468;-3.004;2023-07-28T14:22:50;2.40;;;1.00;;
24389;SDS011;12510;56.468;-3.004;2023-07-28T14:25:16;3.65;;;1.13;;
24389;SDS011;12510;56.468;-3.004;2023-07-28T14:27:43;1.70;;;1.27;;
24389;SDS011;12510;56.468;-3.004;2023-07-28T14:30:09;0.88;;;0.88;;
24389;SDS011;12510;56.468;-3.004;2023-07-28T14:32:36;1.13;;;1.02;;
24389;SDS011;12510;56.468;-3.004;2023-07-28T14:35:03;1.58;;;1.20;;
24389;SDS011;12510;56.468;-3.004;2023-07-28T14:37:30;1.52;;;1.17;;
24389;SDS011;12510;56.468;-3.004;2023-07-28T14:39:56;1.83;;;1.00;;
24389;SDS011;12510;56.468;-3.004;2023-07-28T14:42:23;2.00;;;0.90;;
24389;SDS011;12510;56.468;-3.004;2023-07-28T14:44:49;1.33;;;0.93;;
24389;SDS011;12510;56.468;-3.004;2023-07-28T14:47:16;3.75;;;1.20;;
24389;SDS011;12510;56.468;-3.004;2023-07-28T14:49:42;2.22;;;1.30;;
24389;SDS011;12510;56.468;-3.004;2023-07-28T14:52:09;1.35;;;1.20;;
24389;SDS011;12510;56.468;-3.004;2023-07-28T14:54:35;1.65;;;1.00;;
24389;SDS011;12510;56.468;-3.004;2023-07-28T14:57:01;2.15;;;1.33;;
24389;SDS011;12510;56.468;-3.004;2023-07-28T14:59:28;2.58;;;1.08;;